createdAt,value
2023-05-09T00:00:56.304Z,41.49
2023-05-09T00:03:23.392Z,41.36
2023-05-09T00:05:50.156Z,41.67
2023-05-09T00:08:17.210Z,41.97
2023-05-09T00:10:44.265Z,41.72
2023-05-09T00:13:14.167Z,41.58
2023-05-09T00:15:40.798Z,41.33
2023-05-09T00:18:14.255Z,41.76
2023-05-09T00:20:44.886Z,41.56
2023-05-09T00:23:11.584Z,41.53
2023-05-09T00:25:43.266Z,41.92
2023-05-09T00:28:10.003Z,42.06
2023-05-09T00:30:36.701Z,41.61
2023-05-09T00:33:03.792Z,42.58
2023-05-09T00:35:32.398Z,42.24
2023-05-09T00:38:03.924Z,42.93
2023-05-09T00:40:30.693Z,42.33
2023-05-09T00:42:58.782Z,42.28
2023-05-09T00:45:25.489Z,42.55
2023-05-09T00:47:52.641Z,42.52
2023-05-09T00:50:19.356Z,43.53
2023-05-09T00:52:45.944Z,43.00
2023-05-09T00:55:16.189Z,42.85
2023-05-09T00:57:45.357Z,43.07
2023-05-09T01:00:14.718Z,43.03
2023-05-09T01:02:46.879Z,43.38
2023-05-09T01:05:13.819Z,43.11
2023-05-09T01:07:46.583Z,43.41
2023-05-09T01:10:18.707Z,43.22
2023-05-09T01:12:56.381Z,43.53
2023-05-09T01:15:35.599Z,43.42
2023-05-09T01:18:05.826Z,43.88
2023-05-09T01:20:34.220Z,43.65
2023-05-09T01:23:17.416Z,43.87
2023-05-09T01:25:56.192Z,43.90
2023-05-09T01:28:31.814Z,43.83
2023-05-09T01:31:01.074Z,43.88
2023-05-09T01:33:30.942Z,43.74
2023-05-09T01:36:04.305Z,44.04
2023-05-09T01:38:33.348Z,44.08
2023-05-09T01:41:00.033Z,44.24
2023-05-09T01:43:30.896Z,44.47
2023-05-09T01:45:59.902Z,44.80
2023-05-09T01:48:30.164Z,44.48
2023-05-09T01:50:56.819Z,44.64
2023-05-09T01:53:25.912Z,44.49
2023-05-09T01:55:54.596Z,44.41
2023-05-09T01:58:21.254Z,44.75
2023-05-09T02:00:48.484Z,46.11
2023-05-09T02:03:15.348Z,45.35
2023-05-09T02:05:45.270Z,45.48
2023-05-09T02:08:12.550Z,45.67
2023-05-09T02:10:41.628Z,46.07
2023-05-09T02:13:08.419Z,45.89
2023-05-09T02:15:43.568Z,46.50
2023-05-09T02:18:10.329Z,46.30
2023-05-09T02:20:39.312Z,46.09
2023-05-09T02:23:08.138Z,46.22
2023-05-09T02:25:34.743Z,46.21
2023-05-09T02:28:01.421Z,46.50
2023-05-09T02:30:30.992Z,47.55
2023-05-09T02:33:00.015Z,47.76
2023-05-09T02:35:27.441Z,47.05
2023-05-09T02:37:57.372Z,46.91
2023-05-09T02:40:24.488Z,47.87
2023-05-09T02:42:51.195Z,47.53
2023-05-09T02:45:17.781Z,47.51
2023-05-09T02:47:44.801Z,47.59
2023-05-09T02:50:11.706Z,47.74
2023-05-09T02:52:39.000Z,47.19
2023-05-09T02:55:08.414Z,47.20
2023-05-09T02:57:38.397Z,47.75
2023-05-09T03:00:09.610Z,47.38
2023-05-09T03:02:37.009Z,47.27
2023-05-09T03:05:07.943Z,47.96
2023-05-09T03:07:37.076Z,47.86
2023-05-09T03:10:04.186Z,47.53
2023-05-09T03:12:31.606Z,47.70
2023-05-09T03:14:58.413Z,47.39
2023-05-09T03:17:27.622Z,48.36
2023-05-09T03:19:55.618Z,48.26
2023-05-09T03:22:22.533Z,47.80
2023-05-09T03:24:57.711Z,48.98
2023-05-09T03:27:26.815Z,48.26
2023-05-09T03:29:57.012Z,49.34
2023-05-09T03:32:23.676Z,49.32
2023-05-09T03:34:50.322Z,48.87
2023-05-09T03:37:16.980Z,48.75
2023-05-09T03:39:44.141Z,48.87
2023-05-09T03:42:13.609Z,48.10
2023-05-09T03:44:43.117Z,47.97
2023-05-09T03:47:09.666Z,48.34
2023-05-09T03:49:39.989Z,48.41
2023-05-09T03:52:08.535Z,48.04
2023-05-09T03:54:36.089Z,47.94
2023-05-09T03:57:02.772Z,47.86
2023-05-09T03:59:29.386Z,48.11
2023-05-09T04:01:56.079Z,48.06
2023-05-09T04:04:26.031Z,47.50
2023-05-09T04:06:52.728Z,48.15
2023-05-09T04:09:19.648Z,47.79
2023-05-09T04:11:49.972Z,48.09
2023-05-09T04:14:16.688Z,48.15
2023-05-09T04:16:45.894Z,47.68
2023-05-09T04:19:13.047Z,48.47
2023-05-09T04:21:42.218Z,47.74
2023-05-09T04:24:12.545Z,48.15
2023-05-09T04:26:48.556Z,47.67
2023-05-09T04:29:20.288Z,47.36
2023-05-09T04:31:51.494Z,47.29
2023-05-09T04:34:19.292Z,47.57
2023-05-09T04:36:46.813Z,47.51
2023-05-09T04:39:16.314Z,47.81
2023-05-09T04:41:52.684Z,47.93
2023-05-09T04:44:20.132Z,48.38
2023-05-09T04:46:53.027Z,47.80
2023-05-09T04:49:19.845Z,47.99
2023-05-09T04:51:52.625Z,47.73
2023-05-09T04:54:22.603Z,47.64
2023-05-09T04:56:53.247Z,47.99
2023-05-09T04:59:26.238Z,48.33
2023-05-09T05:01:56.019Z,48.11
2023-05-09T05:04:22.818Z,48.13
2023-05-09T05:06:49.560Z,47.91
2023-05-09T05:09:16.541Z,47.61
2023-05-09T05:11:53.793Z,47.89
2023-05-09T05:14:26.183Z,48.58
2023-05-09T05:16:55.465Z,48.38
2023-05-09T05:19:23.685Z,48.66
2023-05-09T05:21:50.435Z,48.27
2023-05-09T05:24:17.200Z,48.19
2023-05-09T05:26:44.593Z,48.01
2023-05-09T05:29:14.510Z,47.94
2023-05-09T05:31:41.142Z,47.80
2023-05-09T05:34:10.271Z,47.81
2023-05-09T05:36:37.514Z,47.29
2023-05-09T05:39:09.550Z,47.10
2023-05-09T05:41:38.658Z,47.08
2023-05-09T05:44:10.194Z,47.49
2023-05-09T05:46:38.308Z,47.14
2023-05-09T05:49:05.554Z,46.67
2023-05-09T05:51:33.032Z,46.39
2023-05-09T05:54:01.414Z,46.71
2023-05-09T05:56:28.164Z,47.00
2023-05-09T05:58:55.898Z,46.64
2023-05-09T06:01:23.196Z,47.22
2023-05-09T06:03:55.013Z,46.70
2023-05-09T06:06:27.028Z,46.46
2023-05-09T06:08:57.938Z,46.26
2023-05-09T06:11:29.260Z,46.24
2023-05-09T06:13:59.155Z,45.87
2023-05-09T06:16:27.580Z,45.57
2023-05-09T06:18:55.869Z,45.57
2023-05-09T06:21:26.705Z,45.64
2023-05-09T06:24:09.711Z,45.53
2023-05-09T06:26:38.869Z,45.73
2023-05-09T06:29:10.927Z,45.07
2023-05-09T06:31:39.368Z,45.03
2023-05-09T06:34:08.374Z,44.99
2023-05-09T06:36:37.896Z,45.05
2023-05-09T06:39:04.552Z,45.09
2023-05-09T06:41:33.583Z,44.80
2023-05-09T06:44:06.310Z,44.29
2023-05-09T06:46:32.886Z,44.18
2023-05-09T06:49:02.567Z,43.93
2023-05-09T06:51:29.190Z,44.05
2023-05-09T06:53:55.915Z,43.85
2023-05-09T06:56:23.144Z,43.83
2023-05-09T06:58:49.736Z,43.83
2023-05-09T07:01:17.145Z,43.34
2023-05-09T07:03:43.927Z,42.70
2023-05-09T07:06:13.049Z,42.49
2023-05-09T07:08:41.724Z,42.50
2023-05-09T07:11:13.676Z,42.18
2023-05-09T07:13:42.800Z,42.76
2023-05-09T07:16:09.521Z,42.45
2023-05-09T07:18:38.825Z,42.08
2023-05-09T07:21:07.999Z,41.63
2023-05-09T07:23:34.624Z,42.06
2023-05-09T07:26:03.657Z,41.87
2023-05-09T07:28:30.691Z,41.53
2023-05-09T07:31:00.185Z,41.00
2023-05-09T07:33:29.680Z,41.46
2023-05-09T07:35:56.901Z,40.55
2023-05-09T07:38:23.498Z,41.22
2023-05-09T07:40:53.328Z,40.75
2023-05-09T07:43:20.341Z,40.54
2023-05-09T07:45:49.953Z,40.87
2023-05-09T07:48:16.588Z,40.50
2023-05-09T07:50:43.159Z,40.51
2023-05-09T07:53:12.316Z,40.85
2023-05-09T07:55:38.858Z,40.18
2023-05-09T07:58:08.985Z,39.73
2023-05-09T08:00:36.147Z,39.62
2023-05-09T08:03:05.158Z,39.33
2023-05-09T08:05:34.310Z,39.38
2023-05-09T08:08:03.280Z,39.24
2023-05-09T08:10:33.741Z,39.29
2023-05-09T08:13:00.579Z,39.12
2023-05-09T08:15:27.180Z,39.07
2023-05-09T08:17:56.875Z,38.72
2023-05-09T08:20:26.182Z,38.54
2023-05-09T08:22:58.058Z,38.20
2023-05-09T08:25:27.474Z,38.42
2023-05-09T08:27:54.108Z,38.46
2023-05-09T08:30:23.188Z,38.23
2023-05-09T08:32:49.892Z,37.70
2023-05-09T08:35:16.971Z,37.96
2023-05-09T08:37:47.894Z,38.10
2023-05-09T08:40:15.532Z,37.67
2023-05-09T08:42:46.095Z,38.19
2023-05-09T08:45:17.173Z,38.33
2023-05-09T08:47:48.948Z,38.23
2023-05-09T08:50:18.786Z,37.57
2023-05-09T08:52:48.122Z,37.27
2023-05-09T08:55:14.860Z,36.65
2023-05-09T08:57:41.833Z,36.51
2023-05-09T09:00:13.925Z,36.54
2023-05-09T09:02:43.634Z,36.26
2023-05-09T09:05:28.686Z,35.42
2023-05-09T09:07:59.828Z,34.87
2023-05-09T09:10:27.333Z,35.45
2023-05-09T09:12:57.970Z,34.98
2023-05-09T09:15:26.684Z,35.44
2023-05-09T09:17:53.443Z,34.96
2023-05-09T09:20:23.146Z,35.22
2023-05-09T09:22:50.237Z,34.99
2023-05-09T09:25:17.346Z,33.98
2023-05-09T09:27:46.682Z,33.57
2023-05-09T09:30:16.175Z,33.88
2023-05-09T09:32:44.615Z,33.44
2023-05-09T09:35:16.906Z,32.97
2023-05-09T09:37:43.791Z,32.75
2023-05-09T09:40:13.261Z,33.23
2023-05-09T09:42:51.302Z,33.09
2023-05-09T09:45:18.761Z,32.75
2023-05-09T09:47:48.357Z,32.61
2023-05-09T09:50:16.160Z,32.26
2023-05-09T09:52:45.154Z,31.83
2023-05-09T09:55:12.854Z,32.13
2023-05-09T09:57:45.257Z,31.16
2023-05-09T10:00:13.286Z,30.74
2023-05-09T10:02:53.207Z,31.06
2023-05-09T10:05:20.893Z,31.41
2023-05-09T10:07:59.829Z,30.95
2023-05-09T10:10:31.087Z,29.60
2023-05-09T10:12:59.270Z,30.37
2023-05-09T10:15:52.275Z,30.99
2023-05-09T10:18:31.048Z,29.69
2023-05-09T10:21:03.763Z,29.33
2023-05-09T10:23:33.185Z,29.42
2023-05-09T10:26:08.933Z,29.15
2023-05-09T10:28:46.387Z,28.97
2023-05-09T10:31:16.299Z,28.99
2023-05-09T10:33:52.289Z,28.62
2023-05-09T10:36:22.240Z,29.02
2023-05-09T10:38:51.294Z,29.45
2023-05-09T10:41:20.147Z,29.73
2023-05-09T10:43:49.241Z,29.35
2023-05-09T10:46:18.688Z,28.52
2023-05-09T10:48:49.658Z,28.22
2023-05-09T10:51:26.072Z,28.75
2023-05-09T10:53:52.710Z,28.47
2023-05-09T10:56:39.930Z,28.46
2023-05-09T10:59:06.625Z,27.32
2023-05-09T11:01:38.018Z,28.24
2023-05-09T11:04:17.235Z,27.90
2023-05-09T11:06:51.492Z,27.32
2023-05-09T11:09:28.902Z,26.96
2023-05-09T11:11:55.924Z,26.42
2023-05-09T11:14:32.447Z,26.83
2023-05-09T11:17:00.439Z,26.96
2023-05-09T11:19:55.378Z,26.79
2023-05-09T11:22:22.177Z,27.20
2023-05-09T11:24:52.145Z,26.82
2023-05-09T11:27:21.768Z,26.12
2023-05-09T11:29:55.090Z,25.79
2023-05-09T11:32:41.120Z,25.68
2023-05-09T11:35:09.537Z,25.83
2023-05-09T11:37:42.873Z,26.07
2023-05-09T11:40:10.519Z,25.97
2023-05-09T11:42:37.168Z,25.64
2023-05-09T11:45:07.407Z,26.00
2023-05-09T11:47:37.293Z,25.82
2023-05-09T11:50:09.937Z,26.11
2023-05-09T11:52:38.571Z,24.86
2023-05-09T11:55:12.632Z,24.29
2023-05-09T11:57:40.457Z,23.80
2023-05-09T12:00:09.711Z,23.81
2023-05-09T12:02:36.925Z,24.36
2023-05-09T12:05:10.834Z,24.40
2023-05-09T12:07:38.175Z,25.17
2023-05-09T12:10:08.613Z,25.42
2023-05-09T12:12:42.273Z,25.35
2023-05-09T12:15:09.397Z,25.19
2023-05-09T12:17:36.506Z,25.49
2023-05-09T12:20:06.205Z,24.54
2023-05-09T12:22:33.044Z,23.64
2023-05-09T12:25:01.398Z,23.37
2023-05-09T12:27:32.190Z,23.44
2023-05-09T12:30:03.977Z,24.03
2023-05-09T12:32:33.209Z,24.12
2023-05-09T12:35:02.548Z,23.72
2023-05-09T12:37:30.680Z,23.64
2023-05-09T12:40:03.927Z,23.73
2023-05-09T12:42:34.605Z,24.12
2023-05-09T12:45:04.901Z,22.48
2023-05-09T12:47:31.816Z,20.82
2023-05-09T12:50:04.432Z,20.27
2023-05-09T12:52:41.747Z,19.57
2023-05-09T12:55:18.720Z,18.80
2023-05-09T12:57:51.761Z,19.43
2023-05-09T13:00:21.435Z,20.48
2023-05-09T13:02:52.795Z,21.41
2023-05-09T13:05:20.558Z,22.28
2023-05-09T13:07:53.544Z,22.97
2023-05-09T13:10:23.836Z,22.66
2023-05-09T13:12:51.322Z,22.08
2023-05-09T13:15:26.931Z,21.41
2023-05-09T13:17:54.207Z,21.82
2023-05-09T13:20:21.304Z,22.74
2023-05-09T13:22:50.770Z,22.48
2023-05-09T13:25:20.473Z,22.78
2023-05-09T13:27:47.143Z,21.82
2023-05-09T13:30:19.070Z,21.91
2023-05-09T13:32:48.361Z,21.64
2023-05-09T13:35:15.721Z,20.02
2023-05-09T13:37:44.859Z,19.57
2023-05-09T13:40:14.108Z,17.59
2023-05-09T13:42:43.821Z,17.56
2023-05-09T13:45:11.526Z,18.38
2023-05-09T13:47:38.968Z,19.97
2023-05-09T13:50:09.105Z,19.18
2023-05-09T13:52:35.723Z,19.63
2023-05-09T13:55:04.882Z,20.37
2023-05-09T13:57:31.647Z,20.94
2023-05-09T13:59:58.285Z,21.72
2023-05-09T14:02:25.354Z,22.61
2023-05-09T14:04:52.092Z,23.51
2023-05-09T14:07:23.560Z,23.41
2023-05-09T14:10:16.146Z,24.31
2023-05-09T14:12:44.604Z,24.07
2023-05-09T14:15:11.571Z,24.84
2023-05-09T14:17:38.325Z,24.07
2023-05-09T14:20:05.221Z,24.20
2023-05-09T14:22:31.895Z,24.54
2023-05-09T14:24:58.669Z,24.69
2023-05-09T14:27:26.293Z,24.34
2023-05-09T14:29:53.104Z,24.84
2023-05-09T14:32:22.169Z,23.72
2023-05-09T14:34:51.713Z,20.88
2023-05-09T14:37:23.853Z,19.06
2023-05-09T14:39:52.984Z,18.82
2023-05-09T14:42:19.927Z,18.90
2023-05-09T14:44:49.043Z,19.83
2023-05-09T14:47:20.543Z,20.65
2023-05-09T14:49:47.313Z,21.63
2023-05-09T14:52:17.646Z,22.53
2023-05-09T14:54:44.285Z,22.87
2023-05-09T14:57:15.744Z,23.70
2023-05-09T14:59:45.191Z,21.86
2023-05-09T15:02:11.840Z,19.06
2023-05-09T15:04:38.746Z,18.36
2023-05-09T15:07:06.101Z,17.51
2023-05-09T15:09:32.710Z,18.23
2023-05-09T15:12:01.790Z,18.00
2023-05-09T15:14:30.850Z,19.24
2023-05-09T15:17:01.390Z,20.75
2023-05-09T15:19:35.750Z,21.56
2023-05-09T15:22:06.115Z,22.26
2023-05-09T15:24:32.747Z,22.87
2023-05-09T15:26:59.359Z,20.93
2023-05-09T15:29:29.272Z,20.41
2023-05-09T15:31:58.494Z,19.58
2023-05-09T15:34:25.296Z,19.31
2023-05-09T15:36:52.133Z,20.31
2023-05-09T15:39:22.907Z,21.03
2023-05-09T15:41:54.501Z,21.58
2023-05-09T15:44:21.223Z,22.19
2023-05-09T15:46:48.432Z,23.14
2023-05-09T15:49:15.039Z,23.69
2023-05-09T15:51:43.924Z,24.09
2023-05-09T15:54:10.792Z,24.39
2023-05-09T15:56:42.493Z,24.77
2023-05-09T15:59:10.024Z,25.02
2023-05-09T16:01:36.923Z,25.36
2023-05-09T16:04:06.129Z,25.77
2023-05-09T16:06:34.115Z,26.03
2023-05-09T16:09:02.736Z,26.09
2023-05-09T16:11:31.741Z,25.88
2023-05-09T16:13:58.659Z,26.09
2023-05-09T16:16:25.860Z,26.18
2023-05-09T16:18:52.630Z,26.18
2023-05-09T16:21:19.301Z,26.04
2023-05-09T16:23:48.780Z,26.19
2023-05-09T16:26:18.337Z,26.34
2023-05-09T16:28:47.101Z,26.14
2023-05-09T16:31:13.750Z,26.05
2023-05-09T16:33:40.623Z,26.06
2023-05-09T16:36:07.375Z,25.97
2023-05-09T16:38:34.193Z,26.40
2023-05-09T16:41:03.339Z,26.44
2023-05-09T16:43:32.630Z,26.64
2023-05-09T16:46:01.664Z,27.09
2023-05-09T16:48:32.957Z,27.14
2023-05-09T16:50:59.573Z,27.14
2023-05-09T16:53:27.691Z,27.49
2023-05-09T16:55:54.761Z,27.55
2023-05-09T16:58:21.398Z,27.77
2023-05-09T17:00:48.364Z,28.13
2023-05-09T17:03:17.791Z,28.41
2023-05-09T17:05:44.425Z,28.52
2023-05-09T17:08:11.478Z,28.77
2023-05-09T17:10:41.982Z,28.88
2023-05-09T17:13:11.157Z,28.92
2023-05-09T17:15:42.973Z,29.14
2023-05-09T17:18:09.754Z,29.33
2023-05-09T17:20:36.358Z,29.43
2023-05-09T17:23:03.174Z,29.48
2023-05-09T17:25:34.586Z,29.43
2023-05-09T17:28:01.406Z,29.69
2023-05-09T17:30:28.127Z,29.81
2023-05-09T17:32:54.857Z,30.09
2023-05-09T17:35:25.878Z,30.00
2023-05-09T17:37:54.919Z,30.36
2023-05-09T17:40:21.685Z,30.49
2023-05-09T17:42:48.545Z,30.64
2023-05-09T17:45:20.832Z,30.48
2023-05-09T17:47:50.139Z,30.82
2023-05-09T17:50:21.205Z,30.92
2023-05-09T17:52:49.547Z,31.02
2023-05-09T17:55:16.141Z,31.13
2023-05-09T17:57:43.380Z,31.32
2023-05-09T18:00:10.764Z,31.41
2023-05-09T18:02:40.629Z,31.65
2023-05-09T18:05:11.270Z,31.41
2023-05-09T18:07:40.971Z,31.93
2023-05-09T18:10:08.919Z,32.21
2023-05-09T18:12:37.327Z,32.46
2023-05-09T18:15:04.999Z,32.22
2023-05-09T18:17:31.717Z,32.55
2023-05-09T18:20:01.308Z,32.60
2023-05-09T18:22:30.547Z,32.30
2023-05-09T18:24:57.359Z,32.39
2023-05-09T18:27:27.292Z,32.87
2023-05-09T18:29:53.876Z,32.59
2023-05-09T18:32:20.785Z,32.54
2023-05-09T18:34:48.607Z,33.12
2023-05-09T18:37:16.923Z,33.04
2023-05-09T18:39:43.568Z,33.40
2023-05-09T18:42:14.544Z,33.54
2023-05-09T18:44:42.949Z,33.48
2023-05-09T18:47:11.809Z,33.48
2023-05-09T18:49:38.744Z,33.58
2023-05-09T18:52:08.232Z,33.71
2023-05-09T18:54:38.225Z,33.62
2023-05-09T18:57:04.848Z,33.96
2023-05-09T18:59:31.885Z,33.85
2023-05-09T19:01:58.477Z,33.93
2023-05-09T19:04:25.379Z,33.94
2023-05-09T19:06:54.524Z,34.18
2023-05-09T19:09:26.267Z,34.14
2023-05-09T19:11:53.088Z,34.22
2023-05-09T19:14:20.008Z,34.64
2023-05-09T19:16:49.156Z,34.42
2023-05-09T19:19:15.857Z,34.81
2023-05-09T19:21:44.916Z,34.77
2023-05-09T19:24:14.484Z,35.15
2023-05-09T19:26:41.410Z,35.01
2023-05-09T19:29:10.740Z,34.73
2023-05-09T19:31:37.586Z,35.13
2023-05-09T19:34:04.258Z,35.22
2023-05-09T19:36:33.694Z,35.41
2023-05-09T19:39:00.562Z,35.16
2023-05-09T19:41:29.874Z,35.45
2023-05-09T19:43:56.635Z,35.38
2023-05-09T19:46:23.389Z,35.73
2023-05-09T19:48:50.290Z,35.71
2023-05-09T19:51:20.024Z,35.87
2023-05-09T19:53:49.213Z,36.00
2023-05-09T19:56:16.084Z,36.16
2023-05-09T19:58:43.345Z,36.40
2023-05-09T20:01:10.199Z,36.47
2023-05-09T20:03:43.532Z,36.52
2023-05-09T20:06:13.030Z,36.72
2023-05-09T20:08:42.082Z,36.66
2023-05-09T20:11:11.981Z,36.91
2023-05-09T20:13:41.597Z,36.82
2023-05-09T20:16:08.378Z,36.92
2023-05-09T20:18:35.022Z,37.07
2023-05-09T20:21:09.591Z,37.24
2023-05-09T20:23:39.660Z,37.55
2023-05-09T20:26:06.427Z,37.47
2023-05-09T20:28:33.213Z,37.64
2023-05-09T20:31:02.157Z,37.96
2023-05-09T20:33:29.157Z,37.83
2023-05-09T20:35:58.369Z,37.95
2023-05-09T20:38:24.985Z,38.22
2023-05-09T20:40:51.567Z,38.36
2023-05-09T20:43:19.167Z,38.54
2023-05-09T20:45:45.840Z,39.09
2023-05-09T20:48:17.524Z,39.27
2023-05-09T20:50:44.126Z,39.19
2023-05-09T20:53:10.970Z,39.02
2023-05-09T20:55:37.641Z,39.53
2023-05-09T20:58:04.247Z,39.79
2023-05-09T21:00:35.755Z,40.22
2023-05-09T21:03:02.635Z,42.08
2023-05-09T21:05:31.743Z,41.21
2023-05-09T21:08:00.689Z,40.98
2023-05-09T21:10:27.477Z,41.49
2023-05-09T21:12:56.238Z,43.39
2023-05-09T21:15:25.662Z,41.96
2023-05-09T21:17:55.207Z,42.57
2023-05-09T21:20:24.225Z,42.77
2023-05-09T21:22:50.872Z,43.59
2023-05-09T21:25:19.846Z,43.96
2023-05-09T21:27:48.844Z,43.73
2023-05-09T21:30:15.734Z,43.17
2023-05-09T21:32:42.414Z,42.94
2023-05-09T21:35:12.655Z,43.38
2023-05-09T21:37:40.005Z,43.54
2023-05-09T21:40:09.260Z,42.72
2023-05-09T21:42:40.287Z,43.62
2023-05-09T21:45:10.646Z,43.61
2023-05-09T21:47:39.648Z,43.27
2023-05-09T21:50:06.837Z,43.05
2023-05-09T21:52:35.971Z,44.20
2023-05-09T21:55:02.605Z,43.63
2023-05-09T21:57:29.321Z,43.08
2023-05-09T21:59:56.310Z,43.17
2023-05-09T22:02:25.151Z,42.77
2023-05-09T22:04:51.847Z,42.38
2023-05-09T22:07:18.557Z,42.31
2023-05-09T22:09:45.161Z,42.07
2023-05-09T22:12:11.720Z,41.54
2023-05-09T22:14:52.634Z,41.94
2023-05-09T22:17:25.445Z,42.47
2023-05-09T22:19:52.312Z,42.76
2023-05-09T22:22:21.468Z,42.81
2023-05-09T22:24:49.781Z,42.74
2023-05-09T22:27:16.788Z,42.62
2023-05-09T22:29:43.336Z,42.38
2023-05-09T22:32:10.082Z,42.68
2023-05-09T22:34:36.734Z,42.72
2023-05-09T22:37:03.469Z,42.94
2023-05-09T22:39:32.564Z,42.90
2023-05-09T22:41:59.142Z,42.68
2023-05-09T22:44:25.816Z,42.73
2023-05-09T22:46:55.145Z,43.27
2023-05-09T22:49:24.312Z,42.85
2023-05-09T22:51:51.041Z,42.56
2023-05-09T22:54:21.310Z,42.40
2023-05-09T22:56:50.418Z,42.53
2023-05-09T22:59:17.109Z,42.43
2023-05-09T23:01:49.152Z,42.60
2023-05-09T23:07:42.475Z,42.79
2023-05-09T23:10:11.463Z,43.36
2023-05-09T23:12:40.521Z,43.09
2023-05-09T23:15:09.684Z,43.35
2023-05-09T23:17:36.572Z,43.46
2023-05-09T23:20:05.835Z,42.96
2023-05-09T23:22:32.407Z,43.19
2023-05-09T23:25:00.812Z,43.16
2023-05-09T23:27:27.858Z,43.11
2023-05-09T23:29:55.250Z,43.14
2023-05-09T23:32:21.973Z,43.06
2023-05-09T23:34:48.742Z,43.51
2023-05-09T23:37:18.024Z,43.47
2023-05-09T23:39:44.666Z,44.02
2023-05-09T23:42:13.673Z,45.45
2023-05-09T23:44:45.597Z,45.51
2023-05-09T23:47:14.979Z,45.75
2023-05-09T23:49:41.884Z,45.26
2023-05-09T23:52:09.815Z,46.54
2023-05-09T23:54:39.808Z,46.68
2023-05-09T23:57:08.881Z,46.94
2023-05-09T23:59:35.545Z,46.59
